sensor_id;sensor_type;location;lat;lon;timestamp;noise_LAeq;noise_LA_min;noise_LA_max;noise_LA01;noise_LA95
17594;Laerm;8916;47.086;15.920;2022-09-27T00:00:13;48.93;47.77;50.03;;
17594;Laerm;8916;47.086;15.920;2022-09-27T00:02:42;48.93;47.83;50.15;;
17594;Laerm;8916;47.086;15.920;2022-09-27T00:05:12;48.93;47.74;49.97;;
17594;Laerm;8916;47.086;15.920;2022-09-27T00:07:42;48.94;47.68;49.95;;
17594;Laerm;8916;47.086;15.920;2022-09-27T00:10:12;48.93;47.77;50.03;;
17594;Laerm;8916;47.086;15.920;2022-09-27T00:12:41;48.93;47.76;50.00;;
17594;Laerm;8916;47.086;15.920;2022-09-27T00:15:12;48.94;47.83;50.07;;
17594;Laerm;8916;47.086;15.920;2022-09-27T00:17:41;48.93;47.76;50.16;;
17594;Laerm;8916;47.086;15.920;2022-09-27T00:20:10;48.93;47.95;50.29;;
17594;Laerm;8916;47.086;15.920;2022-09-27T00:22:40;48.94;47.88;50.20;;
17594;Laerm;8916;47.086;15.920;2022-09-27T00:25:09;48.93;47.84;50.26;;
17594;Laerm;8916;47.086;15.920;2022-09-27T00:27:39;48.94;47.87;49.98;;
17594;Laerm;8916;47.086;15.920;2022-09-27T00:30:12;48.93;47.79;50.28;;
17594;Laerm;8916;47.086;15.920;2022-09-27T00:32:41;48.94;47.86;50.13;;
17594;Laerm;8916;47.086;15.920;2022-09-27T00:38:17;48.93;47.93;50.13;;
17594;Laerm;8916;47.086;15.920;2022-09-27T00:40:47;48.93;47.86;50.03;;
17594;Laerm;8916;47.086;15.920;2022-09-27T00:43:19;48.93;47.79;50.01;;
17594;Laerm;8916;47.086;15.920;2022-09-27T00:45:53;48.93;47.77;50.20;;
17594;Laerm;8916;47.086;15.920;2022-09-27T00:48:28;48.92;47.84;49.97;;
17594;Laerm;8916;47.086;15.920;2022-09-27T00:51:03;48.95;47.65;50.05;;
17594;Laerm;8916;47.086;15.920;2022-09-27T00:53:36;48.95;47.86;50.24;;
17594;Laerm;8916;47.086;15.920;2022-09-27T00:56:11;48.94;47.86;50.18;;
17594;Laerm;8916;47.086;15.920;2022-09-27T00:58:50;48.94;47.90;50.27;;
17594;Laerm;8916;47.086;15.920;2022-09-27T01:01:27;48.95;47.81;50.18;;
17594;Laerm;8916;47.086;15.920;2022-09-27T01:04:00;48.94;47.84;50.26;;
17594;Laerm;8916;47.086;15.920;2022-09-27T01:06:31;48.95;47.95;50.10;;
17594;Laerm;8916;47.086;15.920;2022-09-27T01:09:01;48.95;47.74;50.34;;
17594;Laerm;8916;47.086;15.920;2022-09-27T01:11:39;48.95;47.81;50.12;;
17594;Laerm;8916;47.086;15.920;2022-09-27T01:14:31;48.94;47.76;50.02;;
17594;Laerm;8916;47.086;15.920;2022-09-27T01:17:26;48.94;47.84;50.15;;
17594;Laerm;8916;47.086;15.920;2022-09-27T01:20:22;48.94;47.90;50.13;;
17594;Laerm;8916;47.086;15.920;2022-09-27T01:23:20;48.94;47.81;50.17;;
17594;Laerm;8916;47.086;15.920;2022-09-27T01:26:10;48.94;47.86;50.02;;
17594;Laerm;8916;47.086;15.920;2022-09-27T01:28:55;48.94;47.32;50.17;;
17594;Laerm;8916;47.086;15.920;2022-09-27T01:31:34;48.93;47.67;50.05;;
17594;Laerm;8916;47.086;15.920;2022-09-27T01:34:10;48.93;47.83;50.06;;
17594;Laerm;8916;47.086;15.920;2022-09-27T01:36:53;48.94;47.81;50.17;;
17594;Laerm;8916;47.086;15.920;2022-09-27T01:39:35;48.95;47.65;50.21;;
17594;Laerm;8916;47.086;15.920;2022-09-27T01:42:39;48.93;47.79;49.96;;
17594;Laerm;8916;47.086;15.920;2022-09-27T01:45:17;48.94;47.83;50.03;;
17594;Laerm;8916;47.086;15.920;2022-09-27T01:48:07;48.94;47.79;50.13;;
17594;Laerm;8916;47.086;15.920;2022-09-27T01:51:10;48.93;47.81;50.35;;
17594;Laerm;8916;47.086;15.920;2022-09-27T01:53:49;48.93;47.88;50.04;;
17594;Laerm;8916;47.086;15.920;2022-09-27T01:56:41;48.94;47.84;50.20;;
17594;Laerm;8916;47.086;15.920;2022-09-27T01:59:25;48.94;47.79;50.01;;
17594;Laerm;8916;47.086;15.920;2022-09-27T02:02:25;48.94;47.65;50.27;;
17594;Laerm;8916;47.086;15.920;2022-09-27T02:05:17;48.94;47.84;50.10;;
17594;Laerm;8916;47.086;15.920;2022-09-27T02:07:56;48.94;47.84;50.07;;
17594;Laerm;8916;47.086;15.920;2022-09-27T02:10:30;48.94;47.74;49.90;;
17594;Laerm;8916;47.086;15.920;2022-09-27T02:13:19;48.95;47.79;50.11;;
17594;Laerm;8916;47.086;15.920;2022-09-27T02:16:05;48.93;47.76;50.31;;
17594;Laerm;8916;47.086;15.920;2022-09-27T02:18:53;48.94;47.86;50.09;;
17594;Laerm;8916;47.086;15.920;2022-09-27T02:21:32;48.94;47.72;50.22;;
17594;Laerm;8916;47.086;15.920;2022-09-27T02:24:10;48.94;47.79;50.00;;
17594;Laerm;8916;47.086;15.920;2022-09-27T02:26:44;48.94;47.83;50.08;;
17594;Laerm;8916;47.086;15.920;2022-09-27T02:29:22;48.93;47.86;49.98;;
17594;Laerm;8916;47.086;15.920;2022-09-27T02:31:55;48.93;47.91;50.29;;
17594;Laerm;8916;47.086;15.920;2022-09-27T02:34:27;48.93;47.81;50.07;;
17594;Laerm;8916;47.086;15.920;2022-09-27T02:36:59;48.93;47.88;50.04;;
17594;Laerm;8916;47.086;15.920;2022-09-27T02:39:29;48.93;47.91;50.10;;
17594;Laerm;8916;47.086;15.920;2022-09-27T02:42:04;48.93;47.88;50.14;;
17594;Laerm;8916;47.086;15.920;2022-09-27T02:44:36;48.94;47.52;50.24;;
17594;Laerm;8916;47.086;15.920;2022-09-27T02:47:33;48.93;47.68;50.06;;
17594;Laerm;8916;47.086;15.920;2022-09-27T02:50:22;48.93;47.86;50.02;;
17594;Laerm;8916;47.086;15.920;2022-09-27T02:53:08;48.94;47.52;50.04;;
17594;Laerm;8916;47.086;15.920;2022-09-27T02:55:56;48.93;47.72;50.23;;
17594;Laerm;8916;47.086;15.920;2022-09-27T02:59:00;48.93;47.93;50.01;;
17594;Laerm;8916;47.086;15.920;2022-09-27T03:02:01;48.94;47.84;49.98;;
17594;Laerm;8916;47.086;15.920;2022-09-27T03:05:07;48.94;47.84;50.23;;
17594;Laerm;8916;47.086;15.920;2022-09-27T03:07:38;48.95;47.83;50.07;;
17594;Laerm;8916;47.086;15.920;2022-09-27T03:10:15;48.94;47.73;49.95;;
17594;Laerm;8916;47.086;15.920;2022-09-27T03:12:46;48.94;47.72;50.06;;
17594;Laerm;8916;47.086;15.920;2022-09-27T03:15:24;48.94;47.84;50.14;;
17594;Laerm;8916;47.086;15.920;2022-09-27T03:18:00;48.93;47.86;50.07;;
17594;Laerm;8916;47.086;15.920;2022-09-27T03:20:55;48.94;47.63;50.49;;
17594;Laerm;8916;47.086;15.920;2022-09-27T03:23:26;48.93;47.91;50.61;;
17594;Laerm;8916;47.086;15.920;2022-09-27T03:25:57;48.93;47.84;50.22;;
17594;Laerm;8916;47.086;15.920;2022-09-27T03:28:26;48.94;47.84;50.07;;
17594;Laerm;8916;47.086;15.920;2022-09-27T03:30:57;48.95;47.93;50.20;;
17594;Laerm;8916;47.086;15.920;2022-09-27T03:33:50;48.94;47.76;50.13;;
17594;Laerm;8916;47.086;15.920;2022-09-27T03:36:19;48.94;47.79;50.03;;
17594;Laerm;8916;47.086;15.920;2022-09-27T03:38:49;48.94;47.77;50.16;;
17594;Laerm;8916;47.086;15.920;2022-09-27T03:41:21;48.94;47.81;49.96;;
17594;Laerm;8916;47.086;15.920;2022-09-27T03:43:51;48.93;47.83;50.15;;
17594;Laerm;8916;47.086;15.920;2022-09-27T03:46:25;48.94;47.77;50.15;;
17594;Laerm;8916;47.086;15.920;2022-09-27T03:48:57;48.93;47.77;50.21;;
17594;Laerm;8916;47.086;15.920;2022-09-27T03:51:27;48.94;47.80;50.13;;
17594;Laerm;8916;47.086;15.920;2022-09-27T03:53:56;48.94;47.70;50.05;;
17594;Laerm;8916;47.086;15.920;2022-09-27T03:56:27;48.94;47.93;50.09;;
17594;Laerm;8916;47.086;15.920;2022-09-27T03:58:57;48.95;47.81;50.19;;
17594;Laerm;8916;47.086;15.920;2022-09-27T04:01:28;48.94;47.77;50.13;;
17594;Laerm;8916;47.086;15.920;2022-09-27T04:04:15;48.93;47.76;50.15;;
17594;Laerm;8916;47.086;15.920;2022-09-27T04:06:46;48.94;47.83;50.08;;
17594;Laerm;8916;47.086;15.920;2022-09-27T04:09:17;48.95;47.65;50.14;;
17594;Laerm;8916;47.086;15.920;2022-09-27T04:11:58;48.94;47.76;50.34;;
17594;Laerm;8916;47.086;15.920;2022-09-27T04:14:27;48.95;47.54;50.13;;
17594;Laerm;8916;47.086;15.920;2022-09-27T04:17:16;48.95;47.84;50.03;;
17594;Laerm;8916;47.086;15.920;2022-09-27T04:20:07;48.94;47.79;50.23;;
17594;Laerm;8916;47.086;15.920;2022-09-27T04:22:40;48.94;47.86;50.27;;
17594;Laerm;8916;47.086;15.920;2022-09-27T04:25:38;48.94;47.81;50.07;;
17594;Laerm;8916;47.086;15.920;2022-09-27T04:28:38;48.95;47.84;49.96;;
17594;Laerm;8916;47.086;15.920;2022-09-27T04:31:07;48.94;47.65;49.97;;
17594;Laerm;8916;47.086;15.920;2022-09-27T04:34:12;48.94;47.76;50.03;;
17594;Laerm;8916;47.086;15.920;2022-09-27T04:36:41;48.94;47.68;50.15;;
17594;Laerm;8916;47.086;15.920;2022-09-27T04:39:14;48.93;47.74;50.15;;
17594;Laerm;8916;47.086;15.920;2022-09-27T04:41:46;48.94;47.65;50.05;;
17594;Laerm;8916;47.086;15.920;2022-09-27T04:44:17;48.93;47.59;49.98;;
17594;Laerm;8916;47.086;15.920;2022-09-27T04:46:49;48.94;47.67;50.20;;
17594;Laerm;8916;47.086;15.920;2022-09-27T04:49:28;48.94;47.83;49.96;;
17594;Laerm;8916;47.086;15.920;2022-09-27T04:51:58;48.93;47.76;50.12;;
17594;Laerm;8916;47.086;15.920;2022-09-27T04:54:27;48.94;47.83;50.24;;
17594;Laerm;8916;47.086;15.920;2022-09-27T04:57:09;48.94;47.81;50.06;;
17594;Laerm;8916;47.086;15.920;2022-09-27T04:59:42;48.94;47.98;49.98;;
17594;Laerm;8916;47.086;15.920;2022-09-27T05:02:13;48.93;47.74;50.09;;
17594;Laerm;8916;47.086;15.920;2022-09-27T05:05:03;48.92;47.76;49.98;;
17594;Laerm;8916;47.086;15.920;2022-09-27T05:07:38;48.94;47.86;49.97;;
17594;Laerm;8916;47.086;15.920;2022-09-27T05:10:12;48.93;47.90;50.01;;
17594;Laerm;8916;47.086;15.920;2022-09-27T05:12:42;48.93;47.90;50.07;;
17594;Laerm;8916;47.086;15.920;2022-09-27T05:15:16;48.94;47.67;50.18;;
17594;Laerm;8916;47.086;15.920;2022-09-27T05:18:27;48.93;47.88;50.17;;
17594;Laerm;8916;47.086;15.920;2022-09-27T05:21:25;48.93;47.79;50.22;;
17594;Laerm;8916;47.086;15.920;2022-09-27T05:23:55;48.94;47.70;50.19;;
17594;Laerm;8916;47.086;15.920;2022-09-27T05:26:24;48.93;47.54;50.35;;
17594;Laerm;8916;47.086;15.920;2022-09-27T05:28:54;48.94;47.74;50.29;;
17594;Laerm;8916;47.086;15.920;2022-09-27T05:31:25;48.93;47.70;49.97;;
17594;Laerm;8916;47.086;15.920;2022-09-27T05:33:55;48.94;47.67;50.09;;
17594;Laerm;8916;47.086;15.920;2022-09-27T05:36:36;48.94;47.95;50.04;;
17594;Laerm;8916;47.086;15.920;2022-09-27T05:39:06;48.94;47.83;50.13;;
17594;Laerm;8916;47.086;15.920;2022-09-27T05:41:36;48.93;47.81;50.14;;
17594;Laerm;8916;47.086;15.920;2022-09-27T05:44:07;48.93;47.79;49.96;;
17594;Laerm;8916;47.086;15.920;2022-09-27T05:46:45;48.93;47.76;50.23;;
17594;Laerm;8916;47.086;15.920;2022-09-27T05:49:15;48.92;47.83;50.22;;
17594;Laerm;8916;47.086;15.920;2022-09-27T05:51:44;48.93;47.63;50.10;;
17594;Laerm;8916;47.086;15.920;2022-09-27T05:54:14;48.93;47.83;50.14;;
17594;Laerm;8916;47.086;15.920;2022-09-27T05:56:43;48.92;47.46;50.00;;
17594;Laerm;8916;47.086;15.920;2022-09-27T05:59:30;48.93;47.38;50.13;;
17594;Laerm;8916;47.086;15.920;2022-09-27T06:02:21;48.93;47.67;50.03;;
17594;Laerm;8916;47.086;15.920;2022-09-27T06:05:09;48.93;47.79;50.08;;
17594;Laerm;8916;47.086;15.920;2022-09-27T06:07:58;48.93;47.90;49.95;;
17594;Laerm;8916;47.086;15.920;2022-09-27T06:10:34;48.92;47.74;50.07;;
17594;Laerm;8916;47.086;15.920;2022-09-27T06:13:09;48.93;47.68;49.98;;
17594;Laerm;8916;47.086;15.920;2022-09-27T06:15:43;48.93;47.79;50.05;;
17594;Laerm;8916;47.086;15.920;2022-09-27T06:18:15;48.92;47.95;50.13;;
17594;Laerm;8916;47.086;15.920;2022-09-27T06:20:48;48.92;47.86;50.16;;
17594;Laerm;8916;47.086;15.920;2022-09-27T06:23:19;48.92;47.81;50.14;;
17594;Laerm;8916;47.086;15.920;2022-09-27T06:25:50;48.92;47.83;49.97;;
17594;Laerm;8916;47.086;15.920;2022-09-27T06:28:24;48.91;47.76;50.06;;
17594;Laerm;8916;47.086;15.920;2022-09-27T06:30:56;48.92;47.88;50.05;;
17594;Laerm;8916;47.086;15.920;2022-09-27T06:33:49;48.91;47.79;50.14;;
17594;Laerm;8916;47.086;15.920;2022-09-27T06:36:19;48.91;47.68;49.93;;
17594;Laerm;8916;47.086;15.920;2022-09-27T06:38:48;48.91;47.68;49.93;;
17594;Laerm;8916;47.086;15.920;2022-09-27T06:41:21;48.91;47.88;50.21;;
17594;Laerm;8916;47.086;15.920;2022-09-27T06:44:14;48.90;47.76;50.07;;
17594;Laerm;8916;47.086;15.920;2022-09-27T06:47:03;48.91;47.83;50.13;;
17594;Laerm;8916;47.086;15.920;2022-09-27T06:49:52;48.92;47.86;50.05;;
17594;Laerm;8916;47.086;15.920;2022-09-27T06:52:28;48.90;47.55;50.15;;
17594;Laerm;8916;47.086;15.920;2022-09-27T06:54:58;48.91;47.74;50.40;;
17594;Laerm;8916;47.086;15.920;2022-09-27T06:57:27;48.91;47.77;50.08;;
17594;Laerm;8916;47.086;15.920;2022-09-27T07:00:15;48.90;47.79;50.12;;
17594;Laerm;8916;47.086;15.920;2022-09-27T07:03:22;48.90;47.81;50.29;;
17594;Laerm;8916;47.086;15.920;2022-09-27T07:06:39;48.91;47.74;50.00;;
17594;Laerm;8916;47.086;15.920;2022-09-27T07:09:18;48.90;47.72;50.11;;
17594;Laerm;8916;47.086;15.920;2022-09-27T07:11:47;48.91;47.79;49.95;;
17594;Laerm;8916;47.086;15.920;2022-09-27T07:14:17;48.90;47.76;49.97;;
17594;Laerm;8916;47.086;15.920;2022-09-27T07:16:48;48.90;47.81;50.09;;
17594;Laerm;8916;47.086;15.920;2022-09-27T07:19:18;48.89;47.76;50.01;;
17594;Laerm;8916;47.086;15.920;2022-09-27T07:21:53;48.90;47.67;50.33;;
17594;Laerm;8916;47.086;15.920;2022-09-27T07:24:23;48.90;47.77;50.10;;
17594;Laerm;8916;47.086;15.920;2022-09-27T07:26:53;48.91;47.83;50.02;;
17594;Laerm;8916;47.086;15.920;2022-09-27T07:29:23;48.89;47.74;50.24;;
17594;Laerm;8916;47.086;15.920;2022-09-27T07:31:53;48.90;47.79;50.14;;
17594;Laerm;8916;47.086;15.920;2022-09-27T07:34:23;48.89;47.76;49.98;;
17594;Laerm;8916;47.086;15.920;2022-09-27T07:36:57;48.89;47.77;50.12;;
17594;Laerm;8916;47.086;15.920;2022-09-27T07:39:28;48.89;47.83;50.02;;
17594;Laerm;8916;47.086;15.920;2022-09-27T07:42:01;48.88;47.77;49.97;;
17594;Laerm;8916;47.086;15.920;2022-09-27T07:44:31;48.88;47.67;49.92;;
17594;Laerm;8916;47.086;15.920;2022-09-27T07:47:29;48.90;47.67;50.13;;
17594;Laerm;8916;47.086;15.920;2022-09-27T07:50:06;48.88;47.65;50.06;;
17594;Laerm;8916;47.086;15.920;2022-09-27T07:52:56;48.89;47.77;50.23;;
17594;Laerm;8916;47.086;15.920;2022-09-27T07:55:34;48.88;47.77;50.11;;
17594;Laerm;8916;47.086;15.920;2022-09-27T07:58:11;48.88;47.83;50.03;;
17594;Laerm;8916;47.086;15.920;2022-09-27T08:00:41;48.89;47.65;50.13;;
17594;Laerm;8916;47.086;15.920;2022-09-27T08:03:14;48.89;47.63;50.05;;
17594;Laerm;8916;47.086;15.920;2022-09-27T08:05:47;48.89;47.76;50.13;;
17594;Laerm;8916;47.086;15.920;2022-09-27T08:08:18;48.89;47.90;50.15;;
17594;Laerm;8916;47.086;15.920;2022-09-27T08:10:49;48.88;47.76;49.92;;
17594;Laerm;8916;47.086;15.920;2022-09-27T08:13:20;48.89;47.77;50.09;;
17594;Laerm;8916;47.086;15.920;2022-09-27T08:15:52;48.88;47.79;50.00;;
17594;Laerm;8916;47.086;15.920;2022-09-27T08:18:23;48.88;47.79;50.17;;
17594;Laerm;8916;47.086;15.920;2022-09-27T08:20:58;48.87;47.86;49.96;;
17594;Laerm;8916;47.086;15.920;2022-09-27T08:23:40;48.87;47.74;50.09;;
17594;Laerm;8916;47.086;15.920;2022-09-27T08:26:29;48.86;47.75;50.09;;
17594;Laerm;8916;47.086;15.920;2022-09-27T08:29:11;48.85;47.77;50.01;;
17594;Laerm;8916;47.086;15.920;2022-09-27T08:31:50;48.86;47.83;50.21;;
17594;Laerm;8916;47.086;15.920;2022-09-27T08:34:21;48.86;47.81;50.04;;
17594;Laerm;8916;47.086;15.920;2022-09-27T08:36:51;48.86;47.76;50.05;;
17594;Laerm;8916;47.086;15.920;2022-09-27T08:39:22;48.84;47.77;50.07;;
17594;Laerm;8916;47.086;15.920;2022-09-27T08:41:59;48.84;47.54;50.17;;
17594;Laerm;8916;47.086;15.920;2022-09-27T08:44:37;48.83;47.72;49.98;;
17594;Laerm;8916;47.086;15.920;2022-09-27T08:47:17;48.83;47.73;50.00;;
17594;Laerm;8916;47.086;15.920;2022-09-27T08:49:52;48.83;47.70;49.96;;
17594;Laerm;8916;47.086;15.920;2022-09-27T08:52:28;48.82;47.65;49.98;;
17594;Laerm;8916;47.086;15.920;2022-09-27T08:55:25;48.81;47.57;50.44;;
17594;Laerm;8916;47.086;15.920;2022-09-27T08:57:58;48.82;47.67;50.01;;
17594;Laerm;8916;47.086;15.920;2022-09-27T09:00:29;48.82;47.79;50.16;;
17594;Laerm;8916;47.086;15.920;2022-09-27T09:03:00;48.83;47.68;50.05;;
17594;Laerm;8916;47.086;15.920;2022-09-27T09:05:34;48.84;47.54;49.88;;
17594;Laerm;8916;47.086;15.920;2022-09-27T09:08:26;48.85;47.81;50.20;;
17594;Laerm;8916;47.086;15.920;2022-09-27T09:11:08;48.84;47.57;49.91;;
17594;Laerm;8916;47.086;15.920;2022-09-27T09:14:18;48.84;47.67;50.02;;
17594;Laerm;8916;47.086;15.920;2022-09-27T09:17:02;48.84;47.67;50.10;;
17594;Laerm;8916;47.086;15.920;2022-09-27T09:19:55;48.84;47.72;50.22;;
17594;Laerm;8916;47.086;15.920;2022-09-27T09:22:51;48.84;47.65;50.05;;
17594;Laerm;8916;47.086;15.920;2022-09-27T09:25:29;48.84;47.57;50.11;;
17594;Laerm;8916;47.086;15.920;2022-09-27T09:28:24;48.84;47.70;50.04;;
17594;Laerm;8916;47.086;15.920;2022-09-27T09:31:05;48.84;47.77;50.04;;
17594;Laerm;8916;47.086;15.920;2022-09-27T09:33:43;48.83;47.46;50.15;;
17594;Laerm;8916;47.086;15.920;2022-09-27T09:36:24;48.83;47.83;50.13;;
17594;Laerm;8916;47.086;15.920;2022-09-27T09:38:58;48.84;47.70;50.14;;
17594;Laerm;8916;47.086;15.920;2022-09-27T09:41:35;48.85;47.65;50.06;;
17594;Laerm;8916;47.086;15.920;2022-09-27T09:44:16;48.84;47.44;50.05;;
17594;Laerm;8916;47.086;15.920;2022-09-27T09:46:51;48.86;47.84;49.94;;
17594;Laerm;8916;47.086;15.920;2022-09-27T09:49:27;48.85;47.67;50.07;;
17594;Laerm;8916;47.086;15.920;2022-09-27T09:52:03;48.85;47.61;50.10;;
17594;Laerm;8916;47.086;15.920;2022-09-27T09:54:39;48.85;47.70;50.19;;
17594;Laerm;8916;47.086;15.920;2022-09-27T09:57:14;48.85;47.65;50.11;;
17594;Laerm;8916;47.086;15.920;2022-09-27T09:59:50;48.84;47.81;49.96;;
17594;Laerm;8916;47.086;15.920;2022-09-27T10:02:29;48.85;47.84;50.35;;
17594;Laerm;8916;47.086;15.920;2022-09-27T10:05:14;48.85;47.81;50.26;;
17594;Laerm;8916;47.086;15.920;2022-09-27T10:07:48;48.84;47.78;50.06;;
17594;Laerm;8916;47.086;15.920;2022-09-27T10:10:19;48.84;47.77;50.17;;
17594;Laerm;8916;47.086;15.920;2022-09-27T10:13:01;48.85;47.79;49.96;;
17594;Laerm;8916;47.086;15.920;2022-09-27T10:15:37;48.84;47.54;50.25;;
17594;Laerm;8916;47.086;15.920;2022-09-27T10:18:14;48.84;47.77;50.09;;
17594;Laerm;8916;47.086;15.920;2022-09-27T10:20:49;48.84;47.46;50.14;;
17594;Laerm;8916;47.086;15.920;2022-09-27T10:23:22;48.83;47.81;50.09;;
17594;Laerm;8916;47.086;15.920;2022-09-27T10:26:17;48.84;47.72;49.98;;
17594;Laerm;8916;47.086;15.920;2022-09-27T10:28:49;48.83;47.77;50.08;;
17594;Laerm;8916;47.086;15.920;2022-09-27T10:31:35;48.83;47.74;50.09;;
17594;Laerm;8916;47.086;15.920;2022-09-27T10:34:27;48.83;47.74;49.93;;
17594;Laerm;8916;47.086;15.920;2022-09-27T10:37:15;48.83;47.67;50.02;;
17594;Laerm;8916;47.086;15.920;2022-09-27T10:39:57;48.83;47.70;50.06;;
17594;Laerm;8916;47.086;15.920;2022-09-27T10:42:34;48.84;47.74;50.12;;
17594;Laerm;8916;47.086;15.920;2022-09-27T10:45:26;48.84;47.81;50.12;;
17594;Laerm;8916;47.086;15.920;2022-09-27T10:48:20;48.84;47.76;50.06;;
17594;Laerm;8916;47.086;15.920;2022-09-27T10:50:58;48.85;47.88;49.93;;
17594;Laerm;8916;47.086;15.920;2022-09-27T10:53:49;48.86;47.81;50.12;;
17594;Laerm;8916;47.086;15.920;2022-09-27T10:56:28;48.88;47.70;50.15;;
17594;Laerm;8916;47.086;15.920;2022-09-27T10:58:59;48.91;47.20;50.14;;
17594;Laerm;8916;47.086;15.920;2022-09-27T11:01:40;48.93;47.95;50.23;;
17594;Laerm;8916;47.086;15.920;2022-09-27T11:05:03;48.96;47.76;50.15;;
17594;Laerm;8916;47.086;15.920;2022-09-27T11:07:48;48.97;47.74;50.20;;
17594;Laerm;8916;47.086;15.920;2022-09-27T11:10:25;48.97;47.96;50.10;;
17594;Laerm;8916;47.086;15.920;2022-09-27T11:13:08;48.99;47.96;50.23;;
17594;Laerm;8916;47.086;15.920;2022-09-27T11:16:00;48.99;47.88;50.29;;
17594;Laerm;8916;47.086;15.920;2022-09-27T11:18:42;48.98;47.72;50.19;;
17594;Laerm;8916;47.086;15.920;2022-09-27T11:21:26;48.97;47.67;50.28;;
17594;Laerm;8916;47.086;15.920;2022-09-27T11:24:15;48.96;47.65;50.34;;
17594;Laerm;8916;47.086;15.920;2022-09-27T11:26:59;48.94;47.86;50.15;;
17594;Laerm;8916;47.086;15.920;2022-09-27T11:29:44;48.96;47.81;50.25;;
17594;Laerm;8916;47.086;15.920;2022-09-27T11:33:05;48.95;47.68;50.31;;
17594;Laerm;8916;47.086;15.920;2022-09-27T11:35:55;48.95;47.83;50.07;;
17594;Laerm;8916;47.086;15.920;2022-09-27T11:38:31;48.96;47.72;50.14;;
17594;Laerm;8916;47.086;15.920;2022-09-27T11:41:44;48.95;47.91;50.10;;
17594;Laerm;8916;47.086;15.920;2022-09-27T11:44:43;48.94;47.86;50.11;;
17594;Laerm;8916;47.086;15.920;2022-09-27T11:47:26;48.94;47.95;50.07;;
17594;Laerm;8916;47.086;15.920;2022-09-27T11:53:27;48.92;47.74;50.27;;
17594;Laerm;8916;47.086;15.920;2022-09-27T11:56:14;48.92;47.76;50.11;;
17594;Laerm;8916;47.086;15.920;2022-09-27T11:59:01;48.93;47.86;50.11;;
17594;Laerm;8916;47.086;15.920;2022-09-27T12:01:45;48.92;47.81;50.35;;
17594;Laerm;8916;47.086;15.920;2022-09-27T12:04:40;48.91;47.68;50.08;;
17594;Laerm;8916;47.086;15.920;2022-09-27T12:07:20;48.91;47.81;50.04;;
17594;Laerm;8916;47.086;15.920;2022-09-27T12:09:56;48.92;47.77;50.10;;
17594;Laerm;8916;47.086;15.920;2022-09-27T12:12:32;48.93;47.68;50.08;;
17594;Laerm;8916;47.086;15.920;2022-09-27T12:15:11;48.93;47.79;50.12;;
17594;Laerm;8916;47.086;15.920;2022-09-27T12:17:44;48.92;47.77;50.21;;
17594;Laerm;8916;47.086;15.920;2022-09-27T12:20:21;48.92;47.77;50.14;;
17594;Laerm;8916;47.086;15.920;2022-09-27T12:22:56;48.92;47.91;50.02;;
17594;Laerm;8916;47.086;15.920;2022-09-27T12:25:44;48.92;47.61;50.07;;
17594;Laerm;8916;47.086;15.920;2022-09-27T12:28:30;48.92;47.67;50.02;;
17594;Laerm;8916;47.086;15.920;2022-09-27T12:31:10;48.91;47.83;50.08;;
17594;Laerm;8916;47.086;15.920;2022-09-27T12:34:13;48.91;47.74;50.15;;
17594;Laerm;8916;47.086;15.920;2022-09-27T12:36:55;48.91;47.83;50.09;;
17594;Laerm;8916;47.086;15.920;2022-09-27T12:39:36;48.91;47.67;50.04;;
17594;Laerm;8916;47.086;15.920;2022-09-27T12:42:24;48.91;47.90;50.10;;
17594;Laerm;8916;47.086;15.920;2022-09-27T12:45:00;48.92;47.76;50.17;;
17594;Laerm;8916;47.086;15.920;2022-09-27T12:47:52;48.92;47.93;50.25;;
17594;Laerm;8916;47.086;15.920;2022-09-27T12:50:31;48.92;47.83;50.28;;
17594;Laerm;8916;47.086;15.920;2022-09-27T12:53:14;48.91;47.83;50.05;;
17594;Laerm;8916;47.086;15.920;2022-09-27T12:56:30;48.91;47.83;50.04;;
17594;Laerm;8916;47.086;15.920;2022-09-27T12:59:23;48.91;47.91;50.07;;
17594;Laerm;8916;47.086;15.920;2022-09-27T13:09:30;48.91;47.79;50.27;;
17594;Laerm;8916;47.086;15.920;2022-09-27T13:12:08;48.90;47.61;50.09;;
17594;Laerm;8916;47.086;15.920;2022-09-27T13:14:57;48.91;47.77;50.02;;
17594;Laerm;8916;47.086;15.920;2022-09-27T13:17:51;48.91;47.74;50.20;;
17594;Laerm;8916;47.086;15.920;2022-09-27T13:20:44;48.91;47.77;50.06;;
17594;Laerm;8916;47.086;15.920;2022-09-27T13:23:50;48.91;47.77;50.43;;
17594;Laerm;8916;47.086;15.920;2022-09-27T13:26:50;48.92;47.63;50.13;;
17594;Laerm;8916;47.086;15.920;2022-09-27T13:29:31;48.91;47.84;50.13;;
17594;Laerm;8916;47.086;15.920;2022-09-27T13:32:19;48.91;47.91;50.11;;
17594;Laerm;8916;47.086;15.920;2022-09-27T13:35:18;48.90;47.91;50.00;;
17594;Laerm;8916;47.086;15.920;2022-09-27T13:38:20;48.89;47.63;50.00;;
17594;Laerm;8916;47.086;15.920;2022-09-27T13:40:52;48.91;47.95;50.28;;
17594;Laerm;8916;47.086;15.920;2022-09-27T13:43:44;48.90;47.72;50.20;;
17594;Laerm;8916;47.086;15.920;2022-09-27T13:46:45;48.91;47.65;50.03;;
17594;Laerm;8916;47.086;15.920;2022-09-27T13:49:26;48.90;47.76;49.98;;
17594;Laerm;8916;47.086;15.920;2022-09-27T13:52:20;48.91;47.81;50.13;;
17594;Laerm;8916;47.086;15.920;2022-09-27T13:55:43;48.89;47.57;50.46;;
17594;Laerm;8916;47.086;15.920;2022-09-27T13:58:44;48.90;47.77;50.21;;
17594;Laerm;8916;47.086;15.920;2022-09-27T14:01:51;48.90;47.70;50.01;;
17594;Laerm;8916;47.086;15.920;2022-09-27T14:04:31;48.89;47.61;50.21;;
17594;Laerm;8916;47.086;15.920;2022-09-27T14:07:04;48.89;47.61;50.13;;
17594;Laerm;8916;47.086;15.920;2022-09-27T14:09:38;48.90;47.76;50.09;;
17594;Laerm;8916;47.086;15.920;2022-09-27T14:12:27;48.89;47.67;50.11;;
17594;Laerm;8916;47.086;15.920;2022-09-27T14:15:07;48.89;47.68;50.41;;
17594;Laerm;8916;47.086;15.920;2022-09-27T14:17:40;48.90;47.77;50.17;;
17594;Laerm;8916;47.086;15.920;2022-09-27T14:20:35;48.90;47.75;50.08;;
17594;Laerm;8916;47.086;15.920;2022-09-27T14:23:17;48.89;47.81;49.98;;
17594;Laerm;8916;47.086;15.920;2022-09-27T14:25:52;48.90;47.54;50.11;;
17594;Laerm;8916;47.086;15.920;2022-09-27T14:28:25;48.91;47.70;50.20;;
17594;Laerm;8916;47.086;15.920;2022-09-27T14:31:09;48.90;47.57;50.13;;
17594;Laerm;8916;47.086;15.920;2022-09-27T14:34:07;48.89;47.79;50.01;;
17594;Laerm;8916;47.086;15.920;2022-09-27T14:36:42;48.91;47.95;49.94;;
17594;Laerm;8916;47.086;15.920;2022-09-27T14:39:37;48.90;47.63;50.16;;
17594;Laerm;8916;47.086;15.920;2022-09-27T14:42:25;48.91;47.67;50.04;;
17594;Laerm;8916;47.086;15.920;2022-09-27T14:45:00;48.90;47.75;50.01;;
17594;Laerm;8916;47.086;15.920;2022-09-27T14:47:31;48.90;47.81;50.00;;
17594;Laerm;8916;47.086;15.920;2022-09-27T14:50:16;48.89;47.67;50.05;;
17594;Laerm;8916;47.086;15.920;2022-09-27T14:52:45;48.90;47.79;50.34;;
17594;Laerm;8916;47.086;15.920;2022-09-27T14:55:20;48.90;47.65;49.98;;
17594;Laerm;8916;47.086;15.920;2022-09-27T14:57:52;48.90;47.76;50.30;;
17594;Laerm;8916;47.086;15.920;2022-09-27T15:00:25;48.90;47.77;50.02;;
17594;Laerm;8916;47.086;15.920;2022-09-27T15:02:56;48.91;47.81;50.17;;
17594;Laerm;8916;47.086;15.920;2022-09-27T15:05:28;48.91;47.68;50.05;;
17594;Laerm;8916;47.086;15.920;2022-09-27T15:08:02;48.91;47.86;50.08;;
17594;Laerm;8916;47.086;15.920;2022-09-27T15:13:39;48.92;47.83;50.26;;